sensor_id;sensor_type;location;lat;lon;timestamp;P1;durP1;ratioP1;P2;durP2;ratioP2
16699;SDS011;8466;52.286;21.124;2023-07-13T00:01:15;11.35;;;10.35;;
16699;SDS011;8466;52.286;21.124;2023-07-13T00:03:46;11.20;;;10.20;;
16699;SDS011;8466;52.286;21.124;2023-07-13T00:06:15;11.35;;;10.25;;
16699;SDS011;8466;52.286;21.124;2023-07-13T00:08:46;11.32;;;9.73;;
16699;SDS011;8466;52.286;21.124;2023-07-13T00:11:15;10.32;;;9.32;;
16699;SDS011;8466;52.286;21.124;2023-07-13T00:13:46;10.77;;;9.85;;
16699;SDS011;8466;52.286;21.124;2023-07-13T00:16:15;11.35;;;9.75;;
16699;SDS011;8466;52.286;21.124;2023-07-13T00:18:45;11.15;;;10.00;;
16699;SDS011;8466;52.286;21.124;2023-07-13T00:21:14;9.60;;;8.75;;
16699;SDS011;8466;52.286;21.124;2023-07-13T00:23:43;10.60;;;9.60;;
16699;SDS011;8466;52.286;21.124;2023-07-13T00:26:11;10.32;;;9.43;;
16699;SDS011;8466;52.286;21.124;2023-07-13T00:28:41;10.68;;;9.63;;
16699;SDS011;8466;52.286;21.124;2023-07-13T00:31:11;10.90;;;9.90;;
16699;SDS011;8466;52.286;21.124;2023-07-13T00:33:42;11.77;;;10.52;;
16699;SDS011;8466;52.286;21.124;2023-07-13T00:36:11;11.52;;;10.43;;
16699;SDS011;8466;52.286;21.124;2023-07-13T00:38:39;12.65;;;11.40;;
16699;SDS011;8466;52.286;21.124;2023-07-13T00:41:08;12.07;;;10.98;;
16699;SDS011;8466;52.286;21.124;2023-07-13T00:43:37;12.38;;;11.15;;
16699;SDS011;8466;52.286;21.124;2023-07-13T00:46:17;14.45;;;11.30;;
16699;SDS011;8466;52.286;21.124;2023-07-13T00:48:49;11.93;;;10.73;;
16699;SDS011;8466;52.286;21.124;2023-07-13T00:51:21;12.02;;;10.77;;
16699;SDS011;8466;52.286;21.124;2023-07-13T00:53:53;11.65;;;10.55;;
16699;SDS011;8466;52.286;21.124;2023-07-13T00:56:24;10.98;;;9.88;;
16699;SDS011;8466;52.286;21.124;2023-07-13T00:58:55;12.07;;;10.88;;
16699;SDS011;8466;52.286;21.124;2023-07-13T01:01:26;10.25;;;9.35;;
16699;SDS011;8466;52.286;21.124;2023-07-13T01:03:55;10.50;;;9.52;;
16699;SDS011;8466;52.286;21.124;2023-07-13T01:06:24;10.60;;;9.60;;
16699;SDS011;8466;52.286;21.124;2023-07-13T01:08:53;11.82;;;10.65;;
16699;SDS011;8466;52.286;21.124;2023-07-13T01:11:22;11.50;;;10.45;;
16699;SDS011;8466;52.286;21.124;2023-07-13T01:13:51;11.18;;;10.18;;
16699;SDS011;8466;52.286;21.124;2023-07-13T01:16:22;12.10;;;10.90;;
16699;SDS011;8466;52.286;21.124;2023-07-13T01:18:55;10.95;;;9.90;;
16699;SDS011;8466;52.286;21.124;2023-07-13T01:21:28;11.07;;;9.70;;
16699;SDS011;8466;52.286;21.124;2023-07-13T01:24:00;10.43;;;9.43;;
16699;SDS011;8466;52.286;21.124;2023-07-13T01:26:29;9.98;;;9.00;;
16699;SDS011;8466;52.286;21.124;2023-07-13T01:28:57;9.98;;;9.07;;
16699;SDS011;8466;52.286;21.124;2023-07-13T01:31:26;10.70;;;9.60;;
16699;SDS011;8466;52.286;21.124;2023-07-13T01:33:55;9.70;;;8.82;;
16699;SDS011;8466;52.286;21.124;2023-07-13T01:36:24;10.07;;;8.30;;
16699;SDS011;8466;52.286;21.124;2023-07-13T01:38:54;9.57;;;8.55;;
16699;SDS011;8466;52.286;21.124;2023-07-13T01:41:23;8.65;;;7.93;;
16699;SDS011;8466;52.286;21.124;2023-07-13T01:43:51;9.15;;;8.10;;
16699;SDS011;8466;52.286;21.124;2023-07-13T01:46:20;9.68;;;8.88;;
16699;SDS011;8466;52.286;21.124;2023-07-13T01:48:50;9.30;;;8.43;;
16699;SDS011;8466;52.286;21.124;2023-07-13T01:51:19;8.88;;;8.00;;
16699;SDS011;8466;52.286;21.124;2023-07-13T01:53:50;9.73;;;8.73;;
16699;SDS011;8466;52.286;21.124;2023-07-13T01:56:18;10.23;;;9.25;;
16699;SDS011;8466;52.286;21.124;2023-07-13T01:58:47;10.57;;;9.48;;
16699;SDS011;8466;52.286;21.124;2023-07-13T02:01:16;9.50;;;8.60;;
16699;SDS011;8466;52.286;21.124;2023-07-13T02:03:45;9.90;;;8.98;;
16699;SDS011;8466;52.286;21.124;2023-07-13T02:06:13;11.90;;;9.05;;
16699;SDS011;8466;52.286;21.124;2023-07-13T02:08:42;10.15;;;8.95;;
16699;SDS011;8466;52.286;21.124;2023-07-13T02:11:12;10.05;;;9.07;;
16699;SDS011;8466;52.286;21.124;2023-07-13T02:13:41;9.95;;;9.10;;
16699;SDS011;8466;52.286;21.124;2023-07-13T02:16:09;10.05;;;9.13;;
16699;SDS011;8466;52.286;21.124;2023-07-13T02:18:39;10.82;;;9.80;;
16699;SDS011;8466;52.286;21.124;2023-07-13T02:21:07;10.10;;;9.20;;
16699;SDS011;8466;52.286;21.124;2023-07-13T02:23:36;10.48;;;9.48;;
16699;SDS011;8466;52.286;21.124;2023-07-13T02:26:05;10.38;;;9.38;;
16699;SDS011;8466;52.286;21.124;2023-07-13T02:28:35;11.13;;;9.85;;
16699;SDS011;8466;52.286;21.124;2023-07-13T02:31:05;10.52;;;9.55;;
16699;SDS011;8466;52.286;21.124;2023-07-13T02:37:21;10.63;;;9.55;;
16699;SDS011;8466;52.286;21.124;2023-07-13T02:39:50;12.43;;;10.93;;
16699;SDS011;8466;52.286;21.124;2023-07-13T02:42:18;16.40;;;10.73;;
16699;SDS011;8466;52.286;21.124;2023-07-13T02:44:48;12.23;;;10.93;;
16699;SDS011;8466;52.286;21.124;2023-07-13T02:47:17;13.32;;;11.65;;
16699;SDS011;8466;52.286;21.124;2023-07-13T02:49:46;18.50;;;11.80;;
16699;SDS011;8466;52.286;21.124;2023-07-13T02:52:14;19.58;;;13.80;;
16699;SDS011;8466;52.286;21.124;2023-07-13T02:54:43;22.95;;;14.10;;
16699;SDS011;8466;52.286;21.124;2023-07-13T02:57:12;20.13;;;14.02;;
16699;SDS011;8466;52.286;21.124;2023-07-13T02:59:40;18.02;;;13.25;;
16699;SDS011;8466;52.286;21.124;2023-07-13T03:02:10;17.63;;;13.18;;
16699;SDS011;8466;52.286;21.124;2023-07-13T03:04:39;16.23;;;12.43;;
16699;SDS011;8466;52.286;21.124;2023-07-13T03:07:08;16.33;;;12.32;;
16699;SDS011;8466;52.286;21.124;2023-07-13T03:09:37;16.75;;;12.27;;
16699;SDS011;8466;52.286;21.124;2023-07-13T03:12:06;16.45;;;11.93;;
16699;SDS011;8466;52.286;21.124;2023-07-13T03:14:35;15.88;;;11.95;;
16699;SDS011;8466;52.286;21.124;2023-07-13T03:17:03;19.73;;;11.95;;
16699;SDS011;8466;52.286;21.124;2023-07-13T03:19:34;14.38;;;11.52;;
16699;SDS011;8466;52.286;21.124;2023-07-13T03:22:03;16.00;;;11.20;;
16699;SDS011;8466;52.286;21.124;2023-07-13T03:24:32;12.38;;;10.68;;
16699;SDS011;8466;52.286;21.124;2023-07-13T03:27:05;12.50;;;11.13;;
16699;SDS011;8466;52.286;21.124;2023-07-13T03:29:34;13.73;;;11.13;;
16699;SDS011;8466;52.286;21.124;2023-07-13T03:32:03;13.13;;;11.35;;
16699;SDS011;8466;52.286;21.124;2023-07-13T03:34:34;14.90;;;11.73;;
16699;SDS011;8466;52.286;21.124;2023-07-13T03:37:03;12.97;;;11.33;;
16699;SDS011;8466;52.286;21.124;2023-07-13T03:39:32;12.40;;;11.20;;
16699;SDS011;8466;52.286;21.124;2023-07-13T03:42:01;13.45;;;11.23;;
16699;SDS011;8466;52.286;21.124;2023-07-13T03:44:30;14.98;;;11.43;;
16699;SDS011;8466;52.286;21.124;2023-07-13T03:46:59;13.35;;;11.35;;
16699;SDS011;8466;52.286;21.124;2023-07-13T03:49:28;13.07;;;11.65;;
16699;SDS011;8466;52.286;21.124;2023-07-13T03:51:58;11.23;;;9.87;;
16699;SDS011;8466;52.286;21.124;2023-07-13T03:54:26;12.70;;;10.07;;
16699;SDS011;8466;52.286;21.124;2023-07-13T03:56:55;12.02;;;9.70;;
16699;SDS011;8466;52.286;21.124;2023-07-13T03:59:23;10.30;;;9.27;;
16699;SDS011;8466;52.286;21.124;2023-07-13T04:01:52;11.27;;;10.10;;
16699;SDS011;8466;52.286;21.124;2023-07-13T04:04:21;11.05;;;9.20;;
16699;SDS011;8466;52.286;21.124;2023-07-13T04:06:50;11.43;;;9.60;;
16699;SDS011;8466;52.286;21.124;2023-07-13T04:09:20;11.07;;;9.75;;
16699;SDS011;8466;52.286;21.124;2023-07-13T04:11:49;10.63;;;9.63;;
16699;SDS011;8466;52.286;21.124;2023-07-13T04:14:18;10.52;;;9.40;;
16699;SDS011;8466;52.286;21.124;2023-07-13T04:16:48;12.13;;;9.90;;
16699;SDS011;8466;52.286;21.124;2023-07-13T04:19:17;12.10;;;9.90;;
16699;SDS011;8466;52.286;21.124;2023-07-13T04:21:46;8.30;;;7.57;;
16699;SDS011;8466;52.286;21.124;2023-07-13T04:24:15;9.85;;;7.75;;
16699;SDS011;8466;52.286;21.124;2023-07-13T04:26:45;9.30;;;8.40;;
16699;SDS011;8466;52.286;21.124;2023-07-13T04:29:14;8.70;;;7.80;;
16699;SDS011;8466;52.286;21.124;2023-07-13T04:31:42;8.10;;;7.10;;
16699;SDS011;8466;52.286;21.124;2023-07-13T04:34:11;8.80;;;6.88;;
16699;SDS011;8466;52.286;21.124;2023-07-13T04:36:40;8.27;;;7.40;;
16699;SDS011;8466;52.286;21.124;2023-07-13T04:39:09;8.35;;;7.40;;
16699;SDS011;8466;52.286;21.124;2023-07-13T04:41:38;9.85;;;6.90;;
16699;SDS011;8466;52.286;21.124;2023-07-13T04:44:08;7.32;;;6.53;;
16699;SDS011;8466;52.286;21.124;2023-07-13T04:46:37;8.05;;;6.65;;
16699;SDS011;8466;52.286;21.124;2023-07-13T04:49:05;7.82;;;7.10;;
16699;SDS011;8466;52.286;21.124;2023-07-13T04:51:34;10.23;;;7.38;;
16699;SDS011;8466;52.286;21.124;2023-07-13T04:54:03;10.00;;;8.50;;
16699;SDS011;8466;52.286;21.124;2023-07-13T04:56:34;10.82;;;9.80;;
16699;SDS011;8466;52.286;21.124;2023-07-13T04:59:03;9.32;;;8.35;;
16699;SDS011;8466;52.286;21.124;2023-07-13T05:01:33;10.88;;;9.73;;
16699;SDS011;8466;52.286;21.124;2023-07-13T05:04:02;11.07;;;9.98;;
16699;SDS011;8466;52.286;21.124;2023-07-13T05:06:31;8.93;;;8.13;;
16699;SDS011;8466;52.286;21.124;2023-07-13T05:09:00;10.90;;;8.80;;
16699;SDS011;8466;52.286;21.124;2023-07-13T05:11:29;9.98;;;9.02;;
16699;SDS011;8466;52.286;21.124;2023-07-13T05:13:58;9.70;;;8.70;;
16699;SDS011;8466;52.286;21.124;2023-07-13T05:16:27;9.35;;;8.45;;
16699;SDS011;8466;52.286;21.124;2023-07-13T05:18:58;10.25;;;9.35;;
16699;SDS011;8466;52.286;21.124;2023-07-13T05:21:26;12.07;;;10.05;;
16699;SDS011;8466;52.286;21.124;2023-07-13T05:23:55;10.98;;;9.93;;
16699;SDS011;8466;52.286;21.124;2023-07-13T05:26:36;10.38;;;9.30;;
16699;SDS011;8466;52.286;21.124;2023-07-13T05:29:05;9.82;;;8.93;;
16699;SDS011;8466;52.286;21.124;2023-07-13T05:31:34;9.85;;;8.85;;
16699;SDS011;8466;52.286;21.124;2023-07-13T05:34:08;10.77;;;9.65;;
16699;SDS011;8466;52.286;21.124;2023-07-13T05:36:37;9.88;;;8.85;;
16699;SDS011;8466;52.286;21.124;2023-07-13T05:39:06;10.50;;;9.27;;
16699;SDS011;8466;52.286;21.124;2023-07-13T05:41:35;11.13;;;9.63;;
16699;SDS011;8466;52.286;21.124;2023-07-13T05:44:04;9.57;;;8.68;;
16699;SDS011;8466;52.286;21.124;2023-07-13T05:46:33;12.45;;;10.15;;
16699;SDS011;8466;52.286;21.124;2023-07-13T05:49:02;10.25;;;9.25;;
16699;SDS011;8466;52.286;21.124;2023-07-13T05:51:32;9.93;;;9.02;;
16699;SDS011;8466;52.286;21.124;2023-07-13T05:54:01;10.75;;;9.02;;
16699;SDS011;8466;52.286;21.124;2023-07-13T05:56:30;10.90;;;9.25;;
16699;SDS011;8466;52.286;21.124;2023-07-13T05:58:59;10.25;;;9.18;;
16699;SDS011;8466;52.286;21.124;2023-07-13T06:01:29;10.18;;;9.15;;
16699;SDS011;8466;52.286;21.124;2023-07-13T06:03:58;9.07;;;8.27;;
16699;SDS011;8466;52.286;21.124;2023-07-13T06:06:27;9.30;;;8.40;;
16699;SDS011;8466;52.286;21.124;2023-07-13T06:08:57;10.02;;;9.05;;
16699;SDS011;8466;52.286;21.124;2023-07-13T06:11:26;13.90;;;8.88;;
16699;SDS011;8466;52.286;21.124;2023-07-13T06:13:56;7.68;;;6.95;;
16699;SDS011;8466;52.286;21.124;2023-07-13T06:16:25;10.20;;;7.47;;
16699;SDS011;8466;52.286;21.124;2023-07-13T06:18:54;11.23;;;7.88;;
16699;SDS011;8466;52.286;21.124;2023-07-13T06:21:22;8.43;;;7.05;;
16699;SDS011;8466;52.286;21.124;2023-07-13T06:23:51;8.00;;;6.45;;
16699;SDS011;8466;52.286;21.124;2023-07-13T06:26:22;7.10;;;6.40;;
16699;SDS011;8466;52.286;21.124;2023-07-13T06:28:50;7.13;;;6.53;;
16699;SDS011;8466;52.286;21.124;2023-07-13T06:31:20;7.95;;;6.88;;
16699;SDS011;8466;52.286;21.124;2023-07-13T06:33:49;6.90;;;6.30;;
16699;SDS011;8466;52.286;21.124;2023-07-13T06:36:17;7.57;;;6.85;;
16699;SDS011;8466;52.286;21.124;2023-07-13T06:38:46;8.20;;;7.43;;
16699;SDS011;8466;52.286;21.124;2023-07-13T06:41:15;7.13;;;6.47;;
16699;SDS011;8466;52.286;21.124;2023-07-13T06:43:45;6.70;;;6.10;;
16699;SDS011;8466;52.286;21.124;2023-07-13T06:46:13;6.97;;;6.18;;
16699;SDS011;8466;52.286;21.124;2023-07-13T06:48:42;5.75;;;5.22;;
16699;SDS011;8466;52.286;21.124;2023-07-13T06:51:11;6.80;;;6.13;;
16699;SDS011;8466;52.286;21.124;2023-07-13T06:53:39;11.18;;;5.70;;
16699;SDS011;8466;52.286;21.124;2023-07-13T06:56:10;5.00;;;4.28;;
16699;SDS011;8466;52.286;21.124;2023-07-13T06:58:39;4.20;;;3.75;;
16699;SDS011;8466;52.286;21.124;2023-07-13T07:01:09;4.50;;;3.95;;
16699;SDS011;8466;52.286;21.124;2023-07-13T07:03:38;3.65;;;3.38;;
16699;SDS011;8466;52.286;21.124;2023-07-13T07:06:10;3.75;;;3.50;;
16699;SDS011;8466;52.286;21.124;2023-07-13T07:08:41;3.85;;;3.45;;
16699;SDS011;8466;52.286;21.124;2023-07-13T07:11:12;5.40;;;4.35;;
16699;SDS011;8466;52.286;21.124;2023-07-13T07:13:46;4.20;;;3.80;;
16699;SDS011;8466;52.286;21.124;2023-07-13T07:16:16;4.50;;;4.10;;
16699;SDS011;8466;52.286;21.124;2023-07-13T07:18:45;5.30;;;4.38;;
16699;SDS011;8466;52.286;21.124;2023-07-13T07:21:15;7.22;;;5.40;;
16699;SDS011;8466;52.286;21.124;2023-07-13T07:23:44;4.38;;;3.97;;
16699;SDS011;8466;52.286;21.124;2023-07-13T07:26:13;5.20;;;4.70;;
16699;SDS011;8466;52.286;21.124;2023-07-13T07:28:42;4.70;;;4.30;;
16699;SDS011;8466;52.286;21.124;2023-07-13T07:31:18;6.70;;;4.65;;
16699;SDS011;8466;52.286;21.124;2023-07-13T07:33:50;3.83;;;3.53;;
16699;SDS011;8466;52.286;21.124;2023-07-13T07:36:19;3.83;;;3.47;;
16699;SDS011;8466;52.286;21.124;2023-07-13T07:38:50;4.43;;;3.80;;
16699;SDS011;8466;52.286;21.124;2023-07-13T07:41:19;6.20;;;4.25;;
16699;SDS011;8466;52.286;21.124;2023-07-13T07:43:51;5.38;;;4.97;;
16699;SDS011;8466;52.286;21.124;2023-07-13T07:46:21;5.32;;;4.90;;
16699;SDS011;8466;52.286;21.124;2023-07-13T07:48:50;5.00;;;4.53;;
16699;SDS011;8466;52.286;21.124;2023-07-13T07:51:19;4.85;;;4.40;;
16699;SDS011;8466;52.286;21.124;2023-07-13T07:53:47;4.45;;;4.07;;
16699;SDS011;8466;52.286;21.124;2023-07-13T07:56:16;8.55;;;4.15;;
16699;SDS011;8466;52.286;21.124;2023-07-13T07:58:48;7.82;;;3.90;;
16699;SDS011;8466;52.286;21.124;2023-07-13T08:01:22;4.50;;;4.10;;
16699;SDS011;8466;52.286;21.124;2023-07-13T08:03:53;4.63;;;3.85;;
16699;SDS011;8466;52.286;21.124;2023-07-13T08:06:25;4.15;;;3.80;;
16699;SDS011;8466;52.286;21.124;2023-07-13T08:09:10;3.28;;;3.00;;
16699;SDS011;8466;52.286;21.124;2023-07-13T08:11:39;4.03;;;3.30;;
16699;SDS011;8466;52.286;21.124;2023-07-13T08:14:11;3.08;;;2.88;;
16699;SDS011;8466;52.286;21.124;2023-07-13T08:16:41;3.45;;;3.17;;
16699;SDS011;8466;52.286;21.124;2023-07-13T08:19:10;3.67;;;3.30;;
16699;SDS011;8466;52.286;21.124;2023-07-13T08:21:39;3.45;;;3.25;;
16699;SDS011;8466;52.286;21.124;2023-07-13T08:24:08;3.80;;;3.50;;
16699;SDS011;8466;52.286;21.124;2023-07-13T08:26:37;3.85;;;3.55;;
16699;SDS011;8466;52.286;21.124;2023-07-13T08:29:06;3.58;;;3.33;;
16699;SDS011;8466;52.286;21.124;2023-07-13T08:31:35;4.95;;;3.75;;
16699;SDS011;8466;52.286;21.124;2023-07-13T08:34:05;3.72;;;3.42;;
16699;SDS011;8466;52.286;21.124;2023-07-13T08:36:34;3.90;;;3.60;;
16699;SDS011;8466;52.286;21.124;2023-07-13T08:39:03;3.95;;;3.65;;
16699;SDS011;8466;52.286;21.124;2023-07-13T08:41:33;4.30;;;3.95;;
16699;SDS011;8466;52.286;21.124;2023-07-13T08:44:03;6.35;;;4.22;;
16699;SDS011;8466;52.286;21.124;2023-07-13T08:46:43;3.97;;;3.67;;
16699;SDS011;8466;52.286;21.124;2023-07-13T08:49:16;4.53;;;4.03;;
16699;SDS011;8466;52.286;21.124;2023-07-13T08:51:51;3.92;;;3.63;;
16699;SDS011;8466;52.286;21.124;2023-07-13T08:54:26;3.83;;;3.53;;
16699;SDS011;8466;52.286;21.124;2023-07-13T08:57:00;4.20;;;3.38;;
16699;SDS011;8466;52.286;21.124;2023-07-13T08:59:36;4.05;;;3.75;;
16699;SDS011;8466;52.286;21.124;2023-07-13T09:04:56;3.63;;;3.40;;
16699;SDS011;8466;52.286;21.124;2023-07-13T09:07:34;4.00;;;3.70;;
16699;SDS011;8466;52.286;21.124;2023-07-13T09:10:14;4.95;;;3.90;;
16699;SDS011;8466;52.286;21.124;2023-07-13T09:12:51;5.40;;;4.53;;
16699;SDS011;8466;52.286;21.124;2023-07-13T09:15:34;4.00;;;3.67;;
16699;SDS011;8466;52.286;21.124;2023-07-13T09:18:09;3.90;;;3.60;;
16699;SDS011;8466;52.286;21.124;2023-07-13T09:20:44;4.13;;;3.72;;
16699;SDS011;8466;52.286;21.124;2023-07-13T09:23:19;4.63;;;4.28;;
16699;SDS011;8466;52.286;21.124;2023-07-13T09:25:51;8.68;;;5.00;;
16699;SDS011;8466;52.286;21.124;2023-07-13T09:28:23;6.43;;;3.63;;
16699;SDS011;8466;52.286;21.124;2023-07-13T09:30:55;3.55;;;2.92;;
16699;SDS011;8466;52.286;21.124;2023-07-13T09:33:28;3.83;;;2.70;;
16699;SDS011;8466;52.286;21.124;2023-07-13T09:36:05;14.55;;;3.65;;
16699;SDS011;8466;52.286;21.124;2023-07-13T09:38:57;4.20;;;2.88;;
16699;SDS011;8466;52.286;21.124;2023-07-13T09:41:33;3.42;;;2.63;;
16699;SDS011;8466;52.286;21.124;2023-07-13T09:44:10;2.92;;;2.58;;
16699;SDS011;8466;52.286;21.124;2023-07-13T09:46:43;2.20;;;2.00;;
16699;SDS011;8466;52.286;21.124;2023-07-13T09:49:17;2.70;;;2.50;;
16699;SDS011;8466;52.286;21.124;2023-07-13T09:51:48;3.35;;;2.80;;
16699;SDS011;8466;52.286;21.124;2023-07-13T09:54:32;3.83;;;2.30;;
16699;SDS011;8466;52.286;21.124;2023-07-13T09:57:03;5.82;;;2.60;;
16699;SDS011;8466;52.286;21.124;2023-07-13T09:59:41;3.05;;;2.85;;
16699;SDS011;8466;52.286;21.124;2023-07-13T10:02:23;2.58;;;2.20;;
16699;SDS011;8466;52.286;21.124;2023-07-13T10:04:55;2.25;;;2.10;;
16699;SDS011;8466;52.286;21.124;2023-07-13T10:07:29;2.40;;;2.20;;
16699;SDS011;8466;52.286;21.124;2023-07-13T10:09:59;2.58;;;2.38;;
16699;SDS011;8466;52.286;21.124;2023-07-13T10:12:30;2.55;;;1.85;;
16699;SDS011;8466;52.286;21.124;2023-07-13T10:15:07;2.40;;;2.20;;
16699;SDS011;8466;52.286;21.124;2023-07-13T10:17:50;2.22;;;2.03;;
16699;SDS011;8466;52.286;21.124;2023-07-13T10:20:20;4.13;;;2.25;;
16699;SDS011;8466;52.286;21.124;2023-07-13T10:22:54;3.83;;;2.47;;
16699;SDS011;8466;52.286;21.124;2023-07-13T10:25:29;2.28;;;2.08;;
16699;SDS011;8466;52.286;21.124;2023-07-13T10:28:02;2.33;;;2.00;;
16699;SDS011;8466;52.286;21.124;2023-07-13T10:30:41;2.85;;;2.35;;
16699;SDS011;8466;52.286;21.124;2023-07-13T10:33:15;2.50;;;2.30;;
16699;SDS011;8466;52.286;21.124;2023-07-13T10:35:45;2.10;;;2.00;;
16699;SDS011;8466;52.286;21.124;2023-07-13T10:38:18;1.88;;;1.77;;
16699;SDS011;8466;52.286;21.124;2023-07-13T10:40:52;2.60;;;2.40;;
16699;SDS011;8466;52.286;21.124;2023-07-13T10:43:25;2.10;;;2.00;;
16699;SDS011;8466;52.286;21.124;2023-07-13T10:45:57;2.63;;;2.20;;
16699;SDS011;8466;52.286;21.124;2023-07-13T10:48:28;2.88;;;2.10;;
16699;SDS011;8466;52.286;21.124;2023-07-13T10:50:59;3.88;;;2.38;;
16699;SDS011;8466;52.286;21.124;2023-07-13T10:53:32;2.45;;;2.33;;
16699;SDS011;8466;52.286;21.124;2023-07-13T10:56:04;3.90;;;2.50;;
16699;SDS011;8466;52.286;21.124;2023-07-13T10:58:38;2.53;;;2.33;;
16699;SDS011;8466;52.286;21.124;2023-07-13T11:01:09;7.18;;;2.42;;
16699;SDS011;8466;52.286;21.124;2023-07-13T11:03:46;5.05;;;2.70;;
16699;SDS011;8466;52.286;21.124;2023-07-13T11:06:29;2.92;;;2.33;;
16699;SDS011;8466;52.286;21.124;2023-07-13T11:12:01;2.90;;;2.30;;
16699;SDS011;8466;52.286;21.124;2023-07-13T11:14:35;3.28;;;2.40;;
16699;SDS011;8466;52.286;21.124;2023-07-13T11:17:25;3.22;;;2.72;;
16699;SDS011;8466;52.286;21.124;2023-07-13T11:23:09;3.65;;;2.55;;
16699;SDS011;8466;52.286;21.124;2023-07-13T11:25:54;3.22;;;2.92;;
16699;SDS011;8466;52.286;21.124;2023-07-13T11:28:25;3.35;;;2.97;;
16699;SDS011;8466;52.286;21.124;2023-07-13T11:31:02;3.78;;;3.40;;
16699;SDS011;8466;52.286;21.124;2023-07-13T11:36:35;3.50;;;3.00;;
16699;SDS011;8466;52.286;21.124;2023-07-13T11:39:15;3.78;;;3.20;;
16699;SDS011;8466;52.286;21.124;2023-07-13T11:41:51;3.95;;;3.20;;
16699;SDS011;8466;52.286;21.124;2023-07-13T11:44:24;3.17;;;2.90;;
16699;SDS011;8466;52.286;21.124;2023-07-13T11:46:55;3.28;;;2.92;;
16699;SDS011;8466;52.286;21.124;2023-07-13T11:49:29;2.95;;;2.55;;
16699;SDS011;8466;52.286;21.124;2023-07-13T11:51:59;3.72;;;3.28;;
16699;SDS011;8466;52.286;21.124;2023-07-13T11:54:30;3.40;;;3.08;;
16699;SDS011;8466;52.286;21.124;2023-07-13T11:57:03;3.45;;;3.10;;
16699;SDS011;8466;52.286;21.124;2023-07-13T11:59:45;3.47;;;3.17;;
16699;SDS011;8466;52.286;21.124;2023-07-13T12:02:14;2.78;;;2.58;;
16699;SDS011;8466;52.286;21.124;2023-07-13T12:04:47;3.45;;;3.15;;
16699;SDS011;8466;52.286;21.124;2023-07-13T12:07:18;4.45;;;3.53;;
16699;SDS011;8466;52.286;21.124;2023-07-13T12:09:47;3.35;;;3.05;;
16699;SDS011;8466;52.286;21.124;2023-07-13T12:12:22;3.88;;;3.47;;
16699;SDS011;8466;52.286;21.124;2023-07-13T12:14:51;3.83;;;3.47;;
16699;SDS011;8466;52.286;21.124;2023-07-13T12:17:22;6.07;;;4.40;;
16699;SDS011;8466;52.286;21.124;2023-07-13T12:19:52;6.28;;;4.15;;
16699;SDS011;8466;52.286;21.124;2023-07-13T12:22:24;4.93;;;4.20;;
16699;SDS011;8466;52.286;21.124;2023-07-13T12:24:53;5.93;;;3.92;;
16699;SDS011;8466;52.286;21.124;2023-07-13T12:27:26;5.38;;;3.80;;
16699;SDS011;8466;52.286;21.124;2023-07-13T12:29:59;5.10;;;4.50;;
16699;SDS011;8466;52.286;21.124;2023-07-13T12:32:32;4.72;;;4.32;;
16699;SDS011;8466;52.286;21.124;2023-07-13T12:35:07;4.85;;;4.45;;
16699;SDS011;8466;52.286;21.124;2023-07-13T12:37:42;5.07;;;4.68;;
16699;SDS011;8466;52.286;21.124;2023-07-13T12:40:13;5.55;;;4.53;;
16699;SDS011;8466;52.286;21.124;2023-07-13T12:42:45;5.22;;;4.78;;
16699;SDS011;8466;52.286;21.124;2023-07-13T12:45:19;5.20;;;4.70;;
16699;SDS011;8466;52.286;21.124;2023-07-13T12:47:50;7.32;;;4.82;;
16699;SDS011;8466;52.286;21.124;2023-07-13T12:50:43;4.55;;;4.15;;
16699;SDS011;8466;52.286;21.124;2023-07-13T12:53:20;3.97;;;3.67;;
16699;SDS011;8466;52.286;21.124;2023-07-13T12:56:01;5.00;;;4.53;;
16699;SDS011;8466;52.286;21.124;2023-07-13T12:58:36;4.85;;;4.45;;
16699;SDS011;8466;52.286;21.124;2023-07-13T13:01:07;5.30;;;4.50;;
16699;SDS011;8466;52.286;21.124;2023-07-13T13:03:39;6.63;;;4.60;;
16699;SDS011;8466;52.286;21.124;2023-07-13T13:06:20;5.70;;;4.20;;
16699;SDS011;8466;52.286;21.124;2023-07-13T13:08:51;4.78;;;4.18;;
16699;SDS011;8466;52.286;21.124;2023-07-13T13:11:22;4.78;;;4.38;;
16699;SDS011;8466;52.286;21.124;2023-07-13T13:13:56;5.68;;;4.65;;
16699;SDS011;8466;52.286;21.124;2023-07-13T13:16:29;5.20;;;4.70;;
16699;SDS011;8466;52.286;21.124;2023-07-13T13:19:01;5.97;;;4.78;;
16699;SDS011;8466;52.286;21.124;2023-07-13T13:21:40;5.82;;;4.85;;
16699;SDS011;8466;52.286;21.124;2023-07-13T13:24:11;5.28;;;4.80;;
16699;SDS011;8466;52.286;21.124;2023-07-13T13:26:41;5.30;;;4.80;;
16699;SDS011;8466;52.286;21.124;2023-07-13T13:29:20;5.18;;;4.68;;
16699;SDS011;8466;52.286;21.124;2023-07-13T13:31:51;8.77;;;5.63;;
16699;SDS011;8466;52.286;21.124;2023-07-13T13:34:22;6.32;;;5.82;;
16699;SDS011;8466;52.286;21.124;2023-07-13T13:36:55;7.13;;;5.57;;
16699;SDS011;8466;52.286;21.124;2023-07-13T13:39:28;7.13;;;5.72;;
16699;SDS011;8466;52.286;21.124;2023-07-13T13:42:01;8.63;;;5.97;;
16699;SDS011;8466;52.286;21.124;2023-07-13T13:44:33;8.05;;;6.20;;
16699;SDS011;8466;52.286;21.124;2023-07-13T13:47:02;7.40;;;5.90;;
16699;SDS011;8466;52.286;21.124;2023-07-13T13:49:31;10.07;;;5.97;;
16699;SDS011;8466;52.286;21.124;2023-07-13T13:52:03;16.23;;;7.82;;
16699;SDS011;8466;52.286;21.124;2023-07-13T13:54:33;14.23;;;7.43;;
16699;SDS011;8466;52.286;21.124;2023-07-13T13:57:02;21.80;;;8.50;;
16699;SDS011;8466;52.286;21.124;2023-07-13T13:59:35;22.13;;;8.75;;
16699;SDS011;8466;52.286;21.124;2023-07-13T14:02:11;13.23;;;7.20;;
16699;SDS011;8466;52.286;21.124;2023-07-13T14:04:52;10.40;;;6.85;;
16699;SDS011;8466;52.286;21.124;2023-07-13T14:07:47;7.93;;;6.03;;
16699;SDS011;8466;52.286;21.124;2023-07-13T14:10:51;9.73;;;6.60;;
16699;SDS011;8466;52.286;21.124;2023-07-13T14:13:42;7.13;;;6.30;;
16699;SDS011;8466;52.286;21.124;2023-07-13T14:16:30;7.47;;;6.00;;
16699;SDS011;8466;52.286;21.124;2023-07-13T14:19:01;9.48;;;6.00;;
16699;SDS011;8466;52.286;21.124;2023-07-13T14:21:50;7.18;;;6.50;;
16699;SDS011;8466;52.286;21.124;2023-07-13T14:24:22;8.23;;;6.10;;
16699;SDS011;8466;52.286;21.124;2023-07-13T14:30:29;9.45;;;5.40;;
16699;SDS011;8466;52.286;21.124;2023-07-13T14:33:09;6.65;;;5.82;;
16699;SDS011;8466;52.286;21.124;2023-07-13T14:35:39;7.20;;;5.88;;
16699;SDS011;8466;52.286;21.124;2023-07-13T14:38:10;6.93;;;6.05;;
16699;SDS011;8466;52.286;21.124;2023-07-13T14:40:41;8.18;;;6.55;;
16699;SDS011;8466;52.286;21.124;2023-07-13T14:43:10;7.80;;;6.70;;
16699;SDS011;8466;52.286;21.124;2023-07-13T14:45:40;7.90;;;6.35;;
16699;SDS011;8466;52.286;21.124;2023-07-13T14:48:22;8.32;;;6.75;;
16699;SDS011;8466;52.286;21.124;2023-07-13T14:50:53;7.38;;;6.70;;
16699;SDS011;8466;52.286;21.124;2023-07-13T14:53:25;7.53;;;6.70;;
16699;SDS011;8466;52.286;21.124;2023-07-13T14:55:58;7.28;;;6.65;;
16699;SDS011;8466;52.286;21.124;2023-07-13T14:58:27;8.05;;;6.22;;
16699;SDS011;8466;52.286;21.124;2023-07-13T15:00:58;7.03;;;6.38;;
16699;SDS011;8466;52.286;21.124;2023-07-13T15:07:40;10.55;;;7.90;;
16699;SDS011;8466;52.286;21.124;2023-07-13T15:10:13;12.73;;;7.82;;
16699;SDS011;8466;52.286;21.124;2023-07-13T15:13:14;8.40;;;6.95;;
16699;SDS011;8466;52.286;21.124;2023-07-13T15:16:04;8.07;;;7.28;;
16699;SDS011;8466;52.286;21.124;2023-07-13T15:18:42;10.15;;;6.65;;
16699;SDS011;8466;52.286;21.124;2023-07-13T15:21:19;7.93;;;7.07;;
16699;SDS011;8466;52.286;21.124;2023-07-13T15:24:24;7.55;;;6.72;;
16699;SDS011;8466;52.286;21.124;2023-07-13T15:27:01;7.45;;;6.65;;
16699;SDS011;8466;52.286;21.124;2023-07-13T15:29:48;6.88;;;6.18;;
16699;SDS011;8466;52.286;21.124;2023-07-13T15:43:26;6.50;;;5.90;;